createdAt,value
2022-10-07T00:01:05.607Z,6.60
2022-10-07T00:03:33.877Z,6.38
2022-10-07T00:06:04.099Z,5.90
2022-10-07T00:08:32.135Z,5.88
2022-10-07T00:11:06.057Z,5.93
2022-10-07T00:13:34.209Z,5.90
2022-10-07T00:16:08.324Z,5.68
2022-10-07T00:18:37.258Z,5.68
2022-10-07T00:21:07.288Z,5.85
2022-10-07T00:23:35.936Z,6.03
2022-10-07T00:26:05.217Z,5.90
2022-10-07T00:28:33.837Z,5.80
2022-10-07T00:31:05.793Z,5.75
2022-10-07T00:33:38.478Z,5.57
2022-10-07T00:36:09.408Z,5.75
2022-10-07T00:38:37.225Z,5.47
2022-10-07T00:41:05.861Z,5.38
2022-10-07T00:43:33.808Z,5.70
2022-10-07T00:46:07.599Z,5.40
2022-10-07T00:48:37.560Z,6.07
2022-10-07T00:51:08.604Z,5.10
2022-10-07T00:53:40.740Z,5.65
2022-10-07T00:56:08.851Z,5.60
2022-10-07T00:58:40.326Z,5.38
2022-10-07T01:01:08.380Z,5.25
2022-10-07T01:03:37.549Z,5.28
2022-10-07T01:06:06.562Z,5.50
2022-10-07T01:08:34.553Z,4.75
2022-10-07T01:11:25.444Z,4.82
2022-10-07T01:14:10.202Z,5.00
2022-10-07T01:16:59.537Z,5.00
2022-10-07T01:19:47.429Z,4.93
2022-10-07T01:22:45.974Z,4.80
2022-10-07T01:25:34.805Z,4.70
2022-10-07T01:28:09.721Z,4.32
2022-10-07T01:30:42.065Z,4.82
2022-10-07T01:33:21.380Z,4.80
2022-10-07T01:35:52.219Z,4.40
2022-10-07T01:38:22.600Z,4.55
2022-10-07T01:41:00.969Z,4.45
2022-10-07T01:43:29.023Z,4.78
2022-10-07T01:45:56.904Z,4.55
2022-10-07T01:48:25.015Z,4.90
2022-10-07T01:50:54.430Z,4.45
2022-10-07T01:53:36.619Z,5.10
2022-10-07T01:56:30.167Z,5.15
2022-10-07T01:59:16.625Z,4.60
2022-10-07T02:02:05.019Z,4.47
2022-10-07T02:04:51.828Z,5.10
2022-10-07T02:07:43.023Z,4.75
2022-10-07T02:10:29.505Z,4.68
2022-10-07T02:13:20.532Z,4.93
2022-10-07T02:15:56.426Z,4.70
2022-10-07T02:18:24.293Z,4.65
2022-10-07T02:20:54.796Z,5.50
2022-10-07T02:23:24.060Z,4.60
2022-10-07T02:25:54.437Z,4.90
2022-10-07T02:28:24.985Z,4.65
2022-10-07T02:30:56.861Z,4.47
2022-10-07T02:33:27.901Z,4.47
2022-10-07T02:35:59.853Z,5.10
2022-10-07T02:38:27.808Z,4.47
2022-10-07T02:41:14.451Z,5.40
2022-10-07T02:44:00.305Z,4.82
2022-10-07T02:46:36.020Z,4.32
2022-10-07T02:49:07.998Z,4.80
2022-10-07T02:51:46.742Z,4.60
2022-10-07T02:54:18.094Z,4.45
2022-10-07T02:56:47.673Z,4.55
2022-10-07T02:59:17.503Z,4.40
2022-10-07T03:01:49.278Z,4.22
2022-10-07T03:04:18.773Z,4.60
2022-10-07T03:06:46.541Z,4.40
2022-10-07T03:09:14.417Z,4.43
2022-10-07T03:11:41.880Z,3.80
2022-10-07T03:14:10.363Z,4.15
2022-10-07T03:16:38.391Z,4.53
2022-10-07T03:19:06.113Z,3.80
2022-10-07T03:21:34.569Z,4.38
2022-10-07T03:24:05.303Z,3.72
2022-10-07T03:26:33.561Z,4.30
2022-10-07T03:29:01.511Z,4.03
2022-10-07T03:31:29.506Z,4.30
2022-10-07T03:33:57.898Z,3.83
2022-10-07T03:36:26.125Z,3.80
2022-10-07T03:38:55.132Z,4.05
2022-10-07T03:41:23.279Z,3.80
2022-10-07T03:43:51.116Z,3.83
2022-10-07T03:46:19.918Z,3.88
2022-10-07T03:48:47.818Z,3.60
2022-10-07T03:51:15.683Z,3.38
2022-10-07T03:53:43.616Z,3.60
2022-10-07T03:56:11.408Z,3.67
2022-10-07T03:58:39.998Z,3.33
2022-10-07T04:01:11.390Z,3.45
2022-10-07T04:03:39.369Z,3.70
2022-10-07T04:06:07.186Z,3.25
2022-10-07T04:08:35.012Z,3.38
2022-10-07T04:11:04.078Z,3.60
2022-10-07T04:13:32.070Z,3.42
2022-10-07T04:15:59.899Z,3.17
2022-10-07T04:18:27.755Z,3.17
2022-10-07T04:20:56.140Z,2.95
2022-10-07T04:23:23.531Z,3.33
2022-10-07T04:25:51.377Z,2.88
2022-10-07T04:28:21.837Z,3.50
2022-10-07T04:30:51.609Z,3.10
2022-10-07T04:33:22.032Z,2.75
2022-10-07T04:35:50.685Z,3.10
2022-10-07T04:38:19.300Z,2.78
2022-10-07T04:40:50.147Z,2.70
2022-10-07T04:43:20.778Z,2.75
2022-10-07T04:45:51.188Z,2.20
2022-10-07T04:48:19.738Z,2.35
2022-10-07T04:50:47.697Z,2.90
2022-10-07T04:53:16.857Z,2.63
2022-10-07T04:55:46.885Z,2.60
2022-10-07T04:58:16.000Z,2.72
2022-10-07T05:00:46.667Z,2.88
2022-10-07T05:03:15.927Z,3.55
2022-10-07T05:05:45.832Z,2.83
2022-10-07T05:08:15.131Z,3.08
2022-10-07T05:10:43.586Z,2.90
2022-10-07T05:13:13.376Z,2.92
2022-10-07T05:15:50.934Z,3.45
2022-10-07T05:18:19.723Z,2.88
2022-10-07T05:20:48.576Z,3.38
2022-10-07T05:23:17.744Z,3.20
2022-10-07T05:25:45.673Z,2.70
2022-10-07T05:28:15.650Z,2.60
2022-10-07T05:30:43.469Z,4.10
2022-10-07T05:33:11.370Z,2.80
2022-10-07T05:35:39.632Z,3.33
2022-10-07T05:38:09.109Z,3.20
2022-10-07T05:40:37.776Z,3.20
2022-10-07T05:43:06.181Z,2.92
2022-10-07T05:45:34.497Z,2.83
2022-10-07T05:48:06.285Z,3.13
2022-10-07T05:50:34.560Z,3.15
2022-10-07T05:53:02.356Z,2.80
2022-10-07T05:55:32.577Z,2.92
2022-10-07T05:58:03.273Z,2.28
2022-10-07T06:00:32.425Z,2.97
2022-10-07T06:03:02.716Z,2.33
2022-10-07T06:05:32.386Z,2.58
2022-10-07T06:08:00.232Z,2.40
2022-10-07T06:10:43.325Z,2.22
2022-10-07T06:13:11.449Z,2.70
2022-10-07T06:15:39.251Z,2.33
2022-10-07T06:18:06.920Z,2.33
2022-10-07T06:20:34.713Z,2.60
2022-10-07T06:23:02.518Z,2.03
2022-10-07T06:25:30.450Z,2.55
2022-10-07T06:27:59.089Z,2.13
2022-10-07T06:30:26.995Z,2.38
2022-10-07T06:32:54.850Z,2.10
2022-10-07T06:35:23.062Z,2.22
2022-10-07T06:37:50.766Z,1.92
2022-10-07T06:40:20.570Z,1.85
2022-10-07T06:42:48.130Z,2.22
2022-10-07T06:45:18.505Z,2.20
2022-10-07T06:47:46.593Z,2.33
2022-10-07T06:50:15.273Z,2.50
2022-10-07T06:52:43.640Z,2.00
2022-10-07T06:55:11.802Z,2.35
2022-10-07T06:57:47.035Z,2.00
2022-10-07T07:00:15.616Z,1.90
2022-10-07T07:02:43.448Z,2.30
2022-10-07T07:05:14.432Z,2.00
2022-10-07T07:07:42.441Z,2.40
2022-10-07T07:10:10.327Z,1.60
2022-10-07T07:12:38.716Z,2.00
2022-10-07T07:15:06.639Z,2.15
2022-10-07T07:17:34.471Z,2.20
2022-10-07T07:20:02.385Z,1.98
2022-10-07T07:22:32.026Z,1.88
2022-10-07T07:24:59.940Z,2.30
2022-10-07T07:27:27.788Z,1.63
2022-10-07T07:29:55.761Z,2.25
2022-10-07T07:32:23.537Z,1.92
2022-10-07T07:37:20.255Z,1.63
2022-10-07T07:39:48.263Z,1.80
2022-10-07T07:42:16.223Z,1.92
2022-10-07T07:44:44.041Z,1.52
2022-10-07T07:47:11.846Z,1.65
2022-10-07T07:49:39.621Z,1.70
2022-10-07T07:52:07.688Z,7.03
2022-10-07T07:54:37.767Z,1.90
2022-10-07T07:57:05.610Z,1.73
2022-10-07T07:59:33.974Z,1.63
2022-10-07T08:02:02.794Z,1.80
2022-10-07T08:04:30.872Z,1.65
2022-10-07T08:06:58.299Z,1.95
2022-10-07T08:09:27.632Z,2.28
2022-10-07T08:11:58.735Z,1.90
2022-10-07T08:14:30.350Z,2.20
2022-10-07T08:17:01.720Z,1.63
2022-10-07T08:19:32.441Z,2.20
2022-10-07T08:22:01.328Z,1.73
2022-10-07T08:24:32.367Z,1.77
2022-10-07T08:27:01.611Z,1.63
2022-10-07T08:29:30.522Z,1.70
2022-10-07T08:31:59.657Z,1.83
2022-10-07T08:34:30.622Z,1.40
2022-10-07T08:37:01.845Z,1.83
2022-10-07T08:39:32.638Z,1.85
2022-10-07T08:42:13.771Z,2.00
2022-10-07T08:44:50.747Z,1.95
2022-10-07T08:47:40.727Z,1.73
2022-10-07T08:50:24.309Z,2.22
2022-10-07T08:53:04.380Z,1.58
2022-10-07T08:55:52.934Z,1.67
2022-10-07T08:58:41.158Z,1.55
2022-10-07T09:01:36.499Z,1.42
2022-10-07T09:04:31.287Z,1.80
2022-10-07T09:07:17.420Z,2.05
2022-10-07T09:10:04.217Z,2.15
2022-10-07T09:12:55.165Z,1.50
2022-10-07T09:15:48.676Z,1.73
2022-10-07T09:20:54.359Z,1.65
2022-10-07T09:23:26.140Z,1.90
2022-10-07T09:25:54.265Z,1.73
2022-10-07T09:28:29.836Z,1.92
2022-10-07T09:31:00.248Z,1.73
2022-10-07T09:33:30.114Z,1.63
2022-10-07T09:36:05.080Z,1.52
2022-10-07T09:38:36.413Z,1.48
2022-10-07T09:41:29.084Z,1.67
2022-10-07T09:44:04.403Z,1.50
2022-10-07T09:46:39.336Z,1.60
2022-10-07T09:49:28.010Z,1.85
2022-10-07T09:52:06.861Z,1.60
2022-10-07T09:54:36.810Z,1.45
2022-10-07T09:57:06.622Z,1.70
2022-10-07T09:59:37.418Z,2.00
2022-10-07T10:02:23.077Z,1.58
2022-10-07T10:04:54.638Z,1.50
2022-10-07T10:07:28.870Z,1.50
2022-10-07T10:10:03.905Z,1.98
2022-10-07T10:12:40.733Z,1.58
2022-10-07T10:15:29.091Z,1.38
2022-10-07T10:18:00.349Z,1.90
2022-10-07T10:20:44.780Z,1.70
2022-10-07T10:23:40.222Z,1.80
2022-10-07T10:26:29.562Z,2.03
2022-10-07T10:29:26.271Z,1.30
2022-10-07T10:32:21.564Z,1.92
2022-10-07T10:35:14.448Z,1.98
2022-10-07T10:38:11.294Z,1.45
2022-10-07T10:41:03.440Z,2.28
2022-10-07T10:43:52.347Z,1.77
2022-10-07T10:46:52.495Z,1.80
2022-10-07T10:49:35.056Z,1.60
2022-10-07T10:52:23.871Z,1.60
2022-10-07T10:55:19.194Z,1.50
2022-10-07T10:58:11.655Z,1.77
2022-10-07T11:01:14.767Z,2.00
2022-10-07T11:04:05.787Z,1.52
2022-10-07T11:06:39.184Z,1.90
2022-10-07T11:09:14.936Z,1.67
2022-10-07T11:11:45.245Z,2.13
2022-10-07T11:14:20.754Z,1.83
2022-10-07T11:16:55.899Z,1.50
2022-10-07T11:19:33.064Z,2.15
2022-10-07T11:22:03.357Z,1.80
2022-10-07T11:24:41.557Z,1.52
2022-10-07T11:27:26.780Z,1.67
2022-10-07T11:30:18.361Z,2.00
2022-10-07T11:33:05.797Z,2.00
2022-10-07T11:35:44.362Z,1.83
2022-10-07T11:38:21.228Z,1.75
2022-10-07T11:40:54.931Z,1.92
2022-10-07T11:43:34.607Z,1.50
2022-10-07T11:46:11.625Z,2.50
2022-10-07T11:48:46.247Z,1.77
2022-10-07T11:51:37.086Z,1.33
2022-10-07T11:54:09.135Z,1.67
2022-10-07T11:56:45.277Z,1.70
2022-10-07T11:59:34.623Z,1.70
2022-10-07T12:02:02.795Z,1.48
2022-10-07T12:04:38.426Z,1.85
2022-10-07T12:07:37.267Z,1.90
2022-10-07T12:10:25.603Z,1.30
2022-10-07T12:12:56.991Z,1.70
2022-10-07T12:15:41.027Z,2.03
2022-10-07T12:18:25.656Z,2.00
2022-10-07T12:21:04.161Z,1.92
2022-10-07T12:23:40.440Z,1.48
2022-10-07T12:26:38.901Z,1.90
2022-10-07T12:29:24.050Z,1.67
2022-10-07T12:31:52.641Z,1.50
2022-10-07T12:34:39.834Z,1.80
2022-10-07T12:37:43.366Z,1.67
2022-10-07T12:40:19.206Z,1.67
2022-10-07T12:42:54.935Z,1.63
2022-10-07T12:45:25.327Z,1.80
2022-10-07T12:47:58.226Z,1.98
2022-10-07T12:50:27.169Z,1.70
2022-10-07T12:52:59.080Z,2.15
2022-10-07T12:55:45.358Z,1.58
2022-10-07T12:59:04.901Z,2.00
2022-10-07T13:02:09.157Z,1.73
2022-10-07T13:05:07.233Z,1.98
2022-10-07T13:08:02.445Z,1.58
2022-10-07T13:10:49.824Z,1.60
2022-10-07T13:13:22.594Z,1.70
2022-10-07T13:15:55.074Z,1.90
2022-10-07T13:18:45.329Z,1.90
2022-10-07T13:21:31.228Z,1.50
2022-10-07T13:23:59.152Z,1.80
2022-10-07T13:26:27.795Z,1.73
2022-10-07T13:28:58.757Z,2.03
2022-10-07T13:31:29.004Z,1.90
2022-10-07T13:33:59.213Z,1.70
2022-10-07T13:36:28.735Z,2.13
2022-10-07T13:39:20.980Z,1.65
2022-10-07T13:41:50.071Z,1.80
2022-10-07T13:44:20.929Z,1.55
2022-10-07T13:46:56.647Z,1.52
2022-10-07T13:49:27.495Z,1.70
2022-10-07T13:51:58.025Z,1.90
2022-10-07T13:54:27.695Z,1.95
2022-10-07T13:56:55.797Z,2.13
2022-10-07T13:59:24.714Z,1.70
2022-10-07T14:01:55.261Z,1.92
2022-10-07T14:04:33.921Z,2.08
2022-10-07T14:07:21.622Z,1.95
2022-10-07T14:10:05.261Z,1.83
2022-10-07T14:12:42.938Z,1.85
2022-10-07T14:15:14.229Z,1.88
2022-10-07T14:17:47.829Z,1.83
2022-10-07T14:20:19.702Z,2.47
2022-10-07T14:22:50.517Z,2.20
2022-10-07T14:25:21.741Z,2.22
2022-10-07T14:27:58.088Z,2.75
2022-10-07T14:30:28.394Z,2.30
2022-10-07T14:33:27.816Z,3.15
2022-10-07T14:36:11.390Z,1.98
2022-10-07T14:38:40.577Z,1.70
2022-10-07T14:41:09.306Z,2.30
2022-10-07T14:43:38.505Z,2.35
2022-10-07T14:46:22.013Z,2.08
2022-10-07T14:48:50.309Z,2.63
2022-10-07T14:51:20.278Z,2.28
2022-10-07T14:53:50.476Z,2.00
2022-10-07T14:56:23.094Z,2.40
2022-10-07T14:58:51.190Z,2.00
2022-10-07T15:01:19.349Z,2.80
2022-10-07T15:03:48.848Z,1.90
2022-10-07T15:06:18.221Z,2.22
2022-10-07T15:08:46.972Z,1.95
2022-10-07T15:11:15.758Z,2.60
2022-10-07T15:13:46.903Z,2.50
2022-10-07T15:16:17.536Z,2.00
2022-10-07T15:18:51.850Z,1.98
2022-10-07T15:21:20.702Z,2.67
2022-10-07T15:23:52.839Z,1.60
2022-10-07T15:26:24.009Z,2.17
2022-10-07T15:28:54.607Z,1.88
2022-10-07T15:31:25.223Z,1.60
2022-10-07T15:33:57.418Z,2.83
2022-10-07T15:36:26.708Z,1.98
2022-10-07T15:38:55.361Z,2.58
2022-10-07T15:41:43.177Z,1.73
2022-10-07T15:44:16.791Z,1.90
2022-10-07T15:46:47.705Z,2.00
2022-10-07T15:49:17.379Z,1.90
2022-10-07T15:51:47.313Z,2.08
2022-10-07T15:54:15.690Z,2.45
2022-10-07T15:56:44.020Z,2.60
2022-10-07T15:59:12.440Z,2.10
2022-10-07T16:01:40.733Z,1.90
2022-10-07T16:04:13.775Z,2.50
2022-10-07T16:06:52.286Z,2.17
2022-10-07T16:09:26.304Z,2.08
2022-10-07T16:11:59.228Z,2.10
2022-10-07T16:14:28.908Z,2.22
2022-10-07T16:16:58.388Z,2.50
2022-10-07T16:19:30.962Z,2.10
2022-10-07T16:21:59.311Z,1.60
2022-10-07T16:24:32.552Z,2.17
2022-10-07T16:27:04.053Z,2.15
2022-10-07T16:29:47.889Z,2.08
2022-10-07T16:32:16.731Z,2.03
2022-10-07T16:34:45.728Z,2.50
2022-10-07T16:37:15.557Z,2.80
2022-10-07T16:39:44.048Z,2.92
2022-10-07T16:42:12.377Z,2.30
2022-10-07T16:44:40.704Z,2.70
2022-10-07T16:47:09.307Z,2.60
2022-10-07T16:49:37.536Z,2.40
2022-10-07T16:52:07.132Z,2.47
2022-10-07T16:54:35.775Z,2.35
2022-10-07T16:57:04.180Z,2.05
2022-10-07T16:59:32.695Z,2.40
2022-10-07T17:02:03.900Z,3.53
2022-10-07T17:04:32.434Z,2.97
2022-10-07T17:07:01.333Z,2.00
2022-10-07T17:09:29.733Z,2.13
2022-10-07T17:11:58.704Z,2.90
2022-10-07T17:14:27.613Z,2.53
2022-10-07T17:16:58.094Z,3.20
2022-10-07T17:19:28.925Z,2.53
2022-10-07T17:22:02.348Z,2.90
2022-10-07T17:24:31.576Z,2.63
2022-10-07T17:27:01.780Z,3.00
2022-10-07T17:29:31.316Z,2.70
2022-10-07T17:31:59.909Z,2.40
2022-10-07T17:34:28.467Z,3.28
2022-10-07T17:36:59.061Z,2.70
2022-10-07T17:39:27.964Z,2.85
2022-10-07T17:41:56.256Z,3.30
2022-10-07T17:44:24.960Z,2.00
2022-10-07T17:46:53.665Z,2.15
2022-10-07T17:49:22.631Z,2.80
2022-10-07T17:51:50.898Z,2.70
2022-10-07T17:54:19.880Z,2.63
2022-10-07T17:56:48.440Z,2.70
2022-10-07T17:59:22.887Z,3.28
2022-10-07T18:01:51.247Z,5.03
2022-10-07T18:04:24.529Z,3.00
2022-10-07T18:06:53.727Z,3.10
2022-10-07T18:09:24.480Z,3.08
2022-10-07T18:12:08.419Z,2.35
2022-10-07T18:14:54.126Z,3.30
2022-10-07T18:17:23.368Z,2.22
2022-10-07T18:19:51.729Z,3.03
2022-10-07T18:22:20.626Z,2.80
2022-10-07T18:24:50.269Z,2.80
2022-10-07T18:27:18.588Z,2.45
2022-10-07T18:29:47.396Z,2.88
2022-10-07T18:32:15.748Z,2.95
2022-10-07T18:34:44.299Z,2.53
2022-10-07T18:37:14.612Z,2.47
2022-10-07T18:39:43.512Z,2.38
2022-10-07T18:42:14.136Z,2.60
2022-10-07T18:44:42.515Z,2.72
2022-10-07T18:47:11.410Z,2.78
2022-10-07T18:49:40.251Z,2.85
2022-10-07T18:52:10.000Z,2.70
2022-10-07T18:54:38.712Z,2.72
2022-10-07T18:57:07.059Z,2.92
2022-10-07T18:59:35.160Z,2.85
2022-10-07T19:02:04.059Z,2.58
2022-10-07T19:04:32.702Z,2.95
2022-10-07T19:07:01.369Z,3.13
2022-10-07T19:09:29.638Z,2.60
2022-10-07T19:11:59.156Z,3.45
2022-10-07T19:14:28.463Z,2.90
2022-10-07T19:16:56.938Z,2.85
2022-10-07T19:19:25.851Z,2.30
2022-10-07T19:21:56.273Z,2.80
2022-10-07T19:24:44.261Z,2.78
2022-10-07T19:27:12.852Z,2.90
2022-10-07T19:29:41.574Z,3.03
2022-10-07T19:32:10.945Z,2.38
2022-10-07T19:34:39.303Z,2.78
2022-10-07T19:37:08.100Z,2.45
2022-10-07T19:39:36.447Z,3.05
2022-10-07T19:42:05.030Z,3.28
2022-10-07T19:44:34.100Z,3.05
2022-10-07T19:47:03.504Z,3.10
2022-10-07T19:49:31.712Z,3.40
2022-10-07T19:52:00.079Z,2.85
2022-10-07T19:54:29.224Z,2.40
2022-10-07T19:56:58.027Z,3.17
2022-10-07T19:59:27.052Z,3.13
2022-10-07T20:02:00.828Z,2.80
2022-10-07T20:04:30.027Z,3.10
2022-10-07T20:06:59.698Z,3.10
2022-10-07T20:09:28.492Z,2.83
2022-10-07T20:11:57.152Z,2.88
2022-10-07T20:14:25.434Z,3.15
2022-10-07T20:16:56.629Z,3.03
2022-10-07T20:19:25.934Z,3.05
2022-10-07T20:21:55.856Z,3.17
2022-10-07T20:24:23.979Z,2.58
2022-10-07T20:26:52.358Z,3.28
2022-10-07T20:29:25.256Z,2.63
2022-10-07T20:31:53.965Z,2.97
2022-10-07T20:34:22.239Z,2.35
2022-10-07T20:36:50.742Z,2.60
2022-10-07T20:39:35.126Z,2.83
2022-10-07T20:42:19.055Z,2.53
2022-10-07T20:44:48.086Z,3.20
2022-10-07T20:47:16.449Z,2.53
2022-10-07T20:49:44.371Z,3.10
2022-10-07T20:52:14.823Z,3.10
2022-10-07T20:54:43.307Z,3.00
2022-10-07T20:57:13.161Z,2.88
2022-10-07T20:59:41.003Z,3.15
2022-10-07T21:02:10.566Z,3.20
2022-10-07T21:04:38.968Z,3.42
2022-10-07T21:07:07.461Z,2.58
2022-10-07T21:09:36.817Z,2.83
2022-10-07T21:12:07.653Z,3.20
2022-10-07T21:14:36.859Z,3.45
2022-10-07T21:17:06.175Z,3.00
2022-10-07T21:19:36.420Z,2.75
2022-10-07T21:22:05.719Z,3.15
2022-10-07T21:24:34.591Z,3.45
2022-10-07T21:27:03.827Z,4.15
2022-10-07T21:29:31.784Z,3.58
2022-10-07T21:32:00.257Z,4.47
2022-10-07T21:34:30.057Z,3.10
2022-10-07T21:36:58.029Z,3.13
2022-10-07T21:39:26.598Z,3.38
2022-10-07T21:41:54.955Z,2.75
2022-10-07T21:44:23.340Z,3.13
2022-10-07T21:46:51.337Z,3.25
2022-10-07T21:49:19.189Z,3.00
2022-10-07T21:51:47.354Z,2.65
2022-10-07T21:54:15.599Z,3.08
2022-10-07T21:56:46.451Z,3.35
2022-10-07T21:59:15.170Z,2.88
2022-10-07T22:01:43.400Z,2.70
2022-10-07T22:04:16.275Z,2.88
2022-10-07T22:06:59.434Z,2.80
2022-10-07T22:09:27.432Z,2.63
2022-10-07T22:11:55.328Z,2.45
2022-10-07T22:14:23.842Z,2.83
2022-10-07T22:16:51.671Z,2.80
2022-10-07T22:19:19.538Z,2.60
2022-10-07T22:21:47.399Z,3.75
2022-10-07T22:24:15.262Z,2.47
2022-10-07T22:26:46.383Z,3.08
2022-10-07T22:29:15.524Z,2.33
2022-10-07T22:31:43.826Z,2.42
2022-10-07T22:34:27.130Z,2.63
2022-10-07T22:36:54.947Z,3.38
2022-10-07T22:39:23.017Z,3.05
2022-10-07T22:41:50.942Z,2.92
2022-10-07T22:44:18.837Z,2.38
2022-10-07T22:46:46.698Z,2.63
2022-10-07T22:49:15.184Z,3.30
2022-10-07T22:51:43.697Z,3.10
2022-10-07T22:54:13.412Z,2.58
2022-10-07T22:56:41.566Z,2.85
2022-10-07T22:59:12.141Z,2.95
2022-10-07T23:01:40.376Z,2.83
2022-10-07T23:04:08.134Z,2.55
2022-10-07T23:06:36.730Z,2.70
2022-10-07T23:09:05.118Z,2.60
2022-10-07T23:11:33.309Z,3.03
2022-10-07T23:14:01.116Z,2.75
2022-10-07T23:16:34.040Z,3.08
2022-10-07T23:19:02.218Z,2.53
2022-10-07T23:21:30.948Z,2.65
2022-10-07T23:24:06.044Z,2.92
2022-10-07T23:26:35.773Z,3.05
2022-10-07T23:29:04.511Z,2.78
2022-10-07T23:31:32.976Z,2.70
2022-10-07T23:34:02.466Z,3.03
2022-10-07T23:36:31.139Z,2.97
2022-10-07T23:38:59.947Z,2.72
2022-10-07T23:41:29.379Z,3.00
2022-10-07T23:43:58.117Z,3.38
2022-10-07T23:46:27.185Z,2.78
2022-10-07T23:48:56.241Z,2.80
2022-10-07T23:51:25.641Z,3.08
2022-10-07T23:53:53.749Z,2.40
2022-10-07T23:56:21.672Z,2.85
2022-10-07T23:58:49.682Z,2.70
